Terminal Aerodrome Forecast
Issued by NWS

Home | Current Version | Previous Version | Text Only | Print | Product List | Glossary On
Versions: 1 2 3 4 5 6 7 8 9 10 11 12 13 14 15 16 17
000
FTUS43 KMQT 232300
TAFIWD
TAF
KIWD 232320Z 2400/2424 VRB03KT 1SM -RA BR OVC003
     FM241000 33012KT 1SM -SN BR OVC003
     FM241300 35016G25KT 1 1/2SM -SN OVC004
      AMD LTD TO CLD VIS AND WIND=

USA.gov is the U.S. government's official web portal to all federal, state and local government web resources and services.